Daisy Mae — WDJ6432 — position and weather

sailwx.info

Track history (hours):
 
Tides and Currents Weather Stations Pressure Air Temp Water Temp Dewpoint Dewpoint Depression Visibility Wind Speed Wind Dir Waves Ship Positions

Daisy Mae

Owner: Coeymans Marine Towing, LLC, Coeymans, NY. More information available from US FCC via Universal Licensing System and Coast Guard Vessel Documentation Center.

Last reported at 2018-Feb-24 21:45 UTC. Time now 2018-Feb-24 22:05 UTC.
Position N 39°29' W 074°08'.

Length 43 m.

MMSI: 367797720.

Date/timePositionNaut miles runAvg speedWind from/ knotsBaromVisibWave heightAir tempDewpointWater temp
2018-Feb-24 21:45N 39°29' W 074°08'2 8.1
2018-Feb-24 21:29N 39°31' W 074°07'4 8.2
2018-Feb-24 21:00N 39°34' W 074°05'4 8.3
2018-Feb-24 20:30N 39°38' W 074°03'4 8.2
2018-Feb-24 20:00N 39°42' W 074°01'38 8.1
2018-Feb-24 15:16N 40°20' W 073°55'2 8.1
2018-Feb-24 15:00N 40°22' W 073°54'4 9.0
2018-Feb-24 14:30N 40°26' W 073°54'5 9.2
2018-Feb-24 14:00N 40°30' W 073°58'5 9.1
2018-Feb-24 13:30N 40°34' W 074°02'3 6.8
2018-Feb-24 13:01N 40°37' W 074°03'3 6.7
2018-Feb-24 12:31N 40°39' W 074°06'2 3.6
2018-Feb-24 12:00N 40°38' W 074°09'0 0.0
2018-Feb-24 11:30N 40°38' W 074°09'0 0.0
2018-Feb-24 11:01N 40°38' W 074°09'0 0.0
2018-Feb-24 10:30N 40°38' W 074°09'0 0.0
2018-Feb-24 10:00N 40°38' W 074°09'0 0.0
2018-Feb-24 09:30N 40°38' W 074°09'0 0.0
2018-Feb-24 09:01N 40°38' W 074°09'0 0.0
2018-Feb-24 08:31N 40°38' W 074°09'0 0.0
2018-Feb-24 07:59N 40°38' W 074°09'0 0.0
2018-Feb-24 07:31N 40°38' W 074°09'0 0.0
2018-Feb-24 07:01N 40°38' W 074°09'0 0.0
2018-Feb-24 06:31N 40°38' W 074°09'0 0.0
2018-Feb-24 06:01N 40°38' W 074°09'0 0.0
2018-Feb-24 05:31N 40°38' W 074°09'0 0.0
2018-Feb-24 05:01N 40°38' W 074°09'0 0.0
2018-Feb-24 04:30N 40°38' W 074°09'0 0.0
2018-Feb-24 04:01N 40°38' W 074°09'0 0.0
2018-Feb-24 03:31N 40°38' W 074°09'0 0.0
2018-Feb-24 03:01N 40°38' W 074°09'0 0.0
2018-Feb-24 02:31N 40°38' W 074°09'0 0.0
2018-Feb-24 01:59N 40°38' W 074°09'0 0.0
2018-Feb-24 01:30N 40°38' W 074°09'0 0.0
2018-Feb-24 01:01N 40°38' W 074°09'0 0.0
2018-Feb-24 00:30N 40°38' W 074°09'2 4.4
2018-Feb-23 23:59N 40°39' W 074°06'4 8.1
2018-Feb-23 23:31N 40°40' W 074°01'0 0.7
2018-Feb-23 23:01N 40°40' W 074°01'0 0.0
2018-Feb-23 22:31N 40°40' W 074°01'0 0.0
2018-Feb-23 22:01N 40°40' W 074°01'0 0.0
2018-Feb-23 21:30N 40°40' W 074°01'0 0.0
2018-Feb-23 21:01N 40°40' W 074°01'0 0.0
2018-Feb-23 20:31N 40°40' W 074°01'0 0.0
2018-Feb-23 20:01N 40°40' W 074°01'0 0.0
2018-Feb-23 19:31N 40°40' W 074°01'0 0.0
2018-Feb-23 19:01N 40°40' W 074°01'0 0.0
2018-Feb-23 18:31N 40°40' W 074°01'0 0.0
2018-Feb-23 18:01N 40°40' W 074°01'1 1.1
2018-Feb-23 17:31N 40°40' W 074°01'1 1.2
2018-Feb-23 17:01N 40°40' W 074°00'1 1.3
2018-Feb-23 16:31N 40°40' W 074°01'2 4.6
2018-Feb-23 16:00N 40°42' W 074°02'4 8.3
2018-Feb-23 15:30N 40°46' W 074°00'4 8.6
2018-Feb-23 15:00N 40°50' W 073°58'4 8.1
2018-Feb-23 14:30N 40°53' W 073°56'5 8.4
2018-Feb-23 13:58N 40°58' W 073°54'  
2018-Feb-20 16:37N 41°01' W 073°53'1 8.0
2018-Feb-20 16:28N 40°60' W 073°53'4 7.7
2018-Feb-20 15:59N 40°56' W 073°54'4 7.4
2018-Feb-20 15:30N 40°53' W 073°56'4 7.5
2018-Feb-20 15:00N 40°49' W 073°58'4 7.1
2018-Feb-20 14:30N 40°46' W 074°00'2 4.7
2018-Feb-20 14:01N 40°44' W 074°01'2 5.0
2018-Feb-20 13:31N 40°42' W 074°01'3 5.6
2018-Feb-20 13:01N 40°39' W 074°03'1 1.6
2018-Feb-20 12:30N 40°39' W 074°02'0 0.0
2018-Feb-20 12:00N 40°39' W 074°02'0 0.1
2018-Feb-20 11:30N 40°39' W 074°02'0 0.0
2018-Feb-20 11:01N 40°39' W 074°02'0 0.0
2018-Feb-20 10:31N 40°39' W 074°02'0 0.0
2018-Feb-20 10:00N 40°39' W 074°02'0 0.0
2018-Feb-20 09:30N 40°39' W 074°02'0 0.0
2018-Feb-20 09:00N 40°39' W 074°02'0 0.0
2018-Feb-20 08:31N 40°39' W 074°02'0 0.0
2018-Feb-20 08:01N 40°39' W 074°02'0 0.0
2018-Feb-20 07:31N 40°39' W 074°02'0 0.0
2018-Feb-20 07:00N 40°39' W 074°02'2 4.0
2018-Feb-20 06:30N 40°41' W 074°01'4 7.4
2018-Feb-20 06:01N 40°44' W 073°58'1 2.4
2018-Feb-20 05:30N 40°44' W 073°57'0 0.0
2018-Feb-20 05:00N 40°44' W 073°57'1 1.5
2018-Feb-20 04:30N 40°44' W 073°58'3 6.6
2018-Feb-20 04:00N 40°42' W 074°00'3 5.4
2018-Feb-20 03:30N 40°40' W 074°03'0 0.1
2018-Feb-20 03:01N 40°40' W 074°03'1 1.7
2018-Feb-20 02:30N 40°40' W 074°04'2 3.3
2018-Feb-20 01:55N 40°39' W 074°07'0 0.0
2018-Feb-20 01:19N 40°39' W 074°07'0 0.0
2018-Feb-20 00:48N 40°39' W 074°07'0 0.0
2018-Feb-20 00:22N 40°39' W 074°07'0 0.0
2018-Feb-19 23:54N 40°39' W 074°07'0 0.0
2018-Feb-19 23:25N 40°39' W 074°07'0 0.0
2018-Feb-19 22:59N 40°39' W 074°07'0 0.0
2018-Feb-19 22:28N 40°39' W 074°07'0 0.0
2018-Feb-19 21:58N 40°39' W 074°07'0 0.0
2018-Feb-19 21:25N 40°39' W 074°07'2 4.4
2018-Feb-19 21:00N 40°39' W 074°04'3 5.2
2018-Feb-19 20:30N 40°40' W 074°01'0 0.8
2018-Feb-19 20:00N 40°40' W 074°01'0 0.0
2018-Feb-19 19:30N 40°40' W 074°01'0 0.0
2018-Feb-19 19:00N 40°40' W 074°01'0 0.0
2018-Feb-19 18:28N 40°40' W 074°01'0 0.0
2018-Feb-19 18:00N 40°40' W 074°01'0 0.0
2018-Feb-18 23:25N 40°40' W 074°01'2 6.0
2018-Feb-18 23:00N 40°42' W 074°01'510.6
2018-Feb-18 22:30N 40°48' W 073°59'611.4
2018-Feb-18 22:00N 40°53' W 073°56'  
2018-Feb-15 01:05N 40°58' W 073°54'1 8.5
2018-Feb-15 01:00N 40°57' W 073°54'4 8.2
2018-Feb-15 00:30N 40°53' W 073°56'4 8.4
2018-Feb-15 00:00N 40°49' W 073°58'4 8.0
2018-Feb-14 23:31N 40°46' W 074°01'3 6.9
2018-Feb-14 23:01N 40°42' W 074°02'3 6.8
2018-Feb-14 22:30N 40°39' W 074°03'3 6.7
2018-Feb-14 22:00N 40°36' W 074°02'  
Track history (hours):
 
Tides and Currents Weather Stations Pressure Air Temp Water Temp Dewpoint Dewpoint Depression Visibility Wind Speed Wind Dir Waves Ship Positions

Daisy Mae

Owner: Coeymans Marine Towing, LLC, Coeymans, NY. More information available from US FCC via Universal Licensing System and Coast Guard Vessel Documentation Center.

Last reported at 2018-Feb-24 21:45 UTC. Time now 2018-Feb-24 22:05 UTC.
Position N 39°29' W 074°08'.

Length 43 m.

MMSI: 367797720.

Date/timePositionNaut miles runAvg speedWind from/ knotsBaromVisibWave heightAir tempDewpointWater temp
2018-Feb-24 21:45N 39°29' W 074°08'2 8.1
2018-Feb-24 21:29N 39°31' W 074°07'4 8.2
2018-Feb-24 21:00N 39°34' W 074°05'4 8.3
2018-Feb-24 20:30N 39°38' W 074°03'4 8.2
2018-Feb-24 20:00N 39°42' W 074°01'38 8.1
2018-Feb-24 15:16N 40°20' W 073°55'2 8.1
2018-Feb-24 15:00N 40°22' W 073°54'4 9.0
2018-Feb-24 14:30N 40°26' W 073°54'5 9.2
2018-Feb-24 14:00N 40°30' W 073°58'5 9.1
2018-Feb-24 13:30N 40°34' W 074°02'3 6.8
2018-Feb-24 13:01N 40°37' W 074°03'3 6.7
2018-Feb-24 12:31N 40°39' W 074°06'2 3.6
2018-Feb-24 12:00N 40°38' W 074°09'0 0.0
2018-Feb-24 11:30N 40°38' W 074°09'0 0.0
2018-Feb-24 11:01N 40°38' W 074°09'0 0.0
2018-Feb-24 10:30N 40°38' W 074°09'0 0.0
2018-Feb-24 10:00N 40°38' W 074°09'0 0.0
2018-Feb-24 09:30N 40°38' W 074°09'0 0.0
2018-Feb-24 09:01N 40°38' W 074°09'0 0.0
2018-Feb-24 08:31N 40°38' W 074°09'0 0.0
2018-Feb-24 07:59N 40°38' W 074°09'0 0.0
2018-Feb-24 07:31N 40°38' W 074°09'0 0.0
2018-Feb-24 07:01N 40°38' W 074°09'0 0.0
2018-Feb-24 06:31N 40°38' W 074°09'0 0.0
2018-Feb-24 06:01N 40°38' W 074°09'0 0.0
2018-Feb-24 05:31N 40°38' W 074°09'0 0.0
2018-Feb-24 05:01N 40°38' W 074°09'0 0.0
2018-Feb-24 04:30N 40°38' W 074°09'0 0.0
2018-Feb-24 04:01N 40°38' W 074°09'0 0.0
2018-Feb-24 03:31N 40°38' W 074°09'0 0.0
2018-Feb-24 03:01N 40°38' W 074°09'0 0.0
2018-Feb-24 02:31N 40°38' W 074°09'0 0.0
2018-Feb-24 01:59N 40°38' W 074°09'0 0.0
2018-Feb-24 01:30N 40°38' W 074°09'0 0.0
2018-Feb-24 01:01N 40°38' W 074°09'0 0.0
2018-Feb-24 00:30N 40°38' W 074°09'2 4.4
2018-Feb-23 23:59N 40°39' W 074°06'4 8.1
2018-Feb-23 23:31N 40°40' W 074°01'0 0.7
2018-Feb-23 23:01N 40°40' W 074°01'0 0.0
2018-Feb-23 22:31N 40°40' W 074°01'0 0.0
2018-Feb-23 22:01N 40°40' W 074°01'0 0.0
2018-Feb-23 21:30N 40°40' W 074°01'0 0.0
2018-Feb-23 21:01N 40°40' W 074°01'0 0.0
2018-Feb-23 20:31N 40°40' W 074°01'0 0.0
2018-Feb-23 20:01N 40°40' W 074°01'0 0.0
2018-Feb-23 19:31N 40°40' W 074°01'0 0.0
2018-Feb-23 19:01N 40°40' W 074°01'0 0.0
2018-Feb-23 18:31N 40°40' W 074°01'0 0.0
2018-Feb-23 18:01N 40°40' W 074°01'1 1.1
2018-Feb-23 17:31N 40°40' W 074°01'1 1.2
2018-Feb-23 17:01N 40°40' W 074°00'1 1.3
2018-Feb-23 16:31N 40°40' W 074°01'2 4.6
2018-Feb-23 16:00N 40°42' W 074°02'4 8.3
2018-Feb-23 15:30N 40°46' W 074°00'4 8.6
2018-Feb-23 15:00N 40°50' W 073°58'4 8.1
2018-Feb-23 14:30N 40°53' W 073°56'5 8.4
2018-Feb-23 13:58N 40°58' W 073°54'  
2018-Feb-20 16:37N 41°01' W 073°53'1 8.0
2018-Feb-20 16:28N 40°60' W 073°53'4 7.7
2018-Feb-20 15:59N 40°56' W 073°54'4 7.4
2018-Feb-20 15:30N 40°53' W 073°56'4 7.5
2018-Feb-20 15:00N 40°49' W 073°58'4 7.1
2018-Feb-20 14:30N 40°46' W 074°00'2 4.7
2018-Feb-20 14:01N 40°44' W 074°01'2 5.0
2018-Feb-20 13:31N 40°42' W 074°01'3 5.6
2018-Feb-20 13:01N 40°39' W 074°03'1 1.6
2018-Feb-20 12:30N 40°39' W 074°02'0 0.0
2018-Feb-20 12:00N 40°39' W 074°02'0 0.1
2018-Feb-20 11:30N 40°39' W 074°02'0 0.0
2018-Feb-20 11:01N 40°39' W 074°02'0 0.0
2018-Feb-20 10:31N 40°39' W 074°02'0 0.0
2018-Feb-20 10:00N 40°39' W 074°02'0 0.0
2018-Feb-20 09:30N 40°39' W 074°02'0 0.0
2018-Feb-20 09:00N 40°39' W 074°02'0 0.0
2018-Feb-20 08:31N 40°39' W 074°02'0 0.0
2018-Feb-20 08:01N 40°39' W 074°02'0 0.0
2018-Feb-20 07:31N 40°39' W 074°02'0 0.0
2018-Feb-20 07:00N 40°39' W 074°02'2 4.0
2018-Feb-20 06:30N 40°41' W 074°01'4 7.4
2018-Feb-20 06:01N 40°44' W 073°58'1 2.4
2018-Feb-20 05:30N 40°44' W 073°57'0 0.0
2018-Feb-20 05:00N 40°44' W 073°57'1 1.5
2018-Feb-20 04:30N 40°44' W 073°58'3 6.6
2018-Feb-20 04:00N 40°42' W 074°00'3 5.4
2018-Feb-20 03:30N 40°40' W 074°03'0 0.1
2018-Feb-20 03:01N 40°40' W 074°03'1 1.7
2018-Feb-20 02:30N 40°40' W 074°04'2 3.3
2018-Feb-20 01:55N 40°39' W 074°07'0 0.0
2018-Feb-20 01:19N 40°39' W 074°07'0 0.0
2018-Feb-20 00:48N 40°39' W 074°07'0 0.0
2018-Feb-20 00:22N 40°39' W 074°07'0 0.0
2018-Feb-19 23:54N 40°39' W 074°07'0 0.0
2018-Feb-19 23:25N 40°39' W 074°07'0 0.0
2018-Feb-19 22:59N 40°39' W 074°07'0 0.0
2018-Feb-19 22:28N 40°39' W 074°07'0 0.0
2018-Feb-19 21:58N 40°39' W 074°07'0 0.0
2018-Feb-19 21:25N 40°39' W 074°07'2 4.4
2018-Feb-19 21:00N 40°39' W 074°04'3 5.2
2018-Feb-19 20:30N 40°40' W 074°01'0 0.8
2018-Feb-19 20:00N 40°40' W 074°01'0 0.0
2018-Feb-19 19:30N 40°40' W 074°01'0 0.0
2018-Feb-19 19:00N 40°40' W 074°01'0 0.0
2018-Feb-19 18:28N 40°40' W 074°01'0 0.0
2018-Feb-19 18:00N 40°40' W 074°01'0 0.0
2018-Feb-18 23:25N 40°40' W 074°01'2 6.0
2018-Feb-18 23:00N 40°42' W 074°01'510.6
2018-Feb-18 22:30N 40°48' W 073°59'611.4
2018-Feb-18 22:00N 40°53' W 073°56'  
2018-Feb-15 01:05N 40°58' W 073°54'1 8.5
2018-Feb-15 01:00N 40°57' W 073°54'4 8.2
2018-Feb-15 00:30N 40°53' W 073°56'4 8.4
2018-Feb-15 00:00N 40°49' W 073°58'4 8.0
2018-Feb-14 23:31N 40°46' W 074°01'3 6.9
2018-Feb-14 23:01N 40°42' W 074°02'3 6.8
2018-Feb-14 22:30N 40°39' W 074°03'3 6.7
2018-Feb-14 22:00N 40°36' W 074°02'  

Dump ship's entire track history